sensor_id;sensor_type;location;lat;lon;timestamp;P1;durP1;ratioP1;P2;durP2;ratioP2
54539;SDS011;40438;52.992;18.604;2023-10-19T00:02:07;17.05;;;6.65;;
54539;SDS011;40438;52.992;18.604;2023-10-19T00:04:33;21.63;;;7.18;;
54539;SDS011;40438;52.992;18.604;2023-10-19T00:06:58;25.27;;;7.80;;
54539;SDS011;40438;52.992;18.604;2023-10-19T00:09:26;20.20;;;8.85;;
54539;SDS011;40438;52.992;18.604;2023-10-19T00:11:51;25.42;;;8.20;;
54539;SDS011;40438;52.992;18.604;2023-10-19T00:14:17;14.82;;;7.82;;
54539;SDS011;40438;52.992;18.604;2023-10-19T00:16:43;19.45;;;7.65;;
54539;SDS011;40438;52.992;18.604;2023-10-19T00:19:10;21.88;;;9.48;;
54539;SDS011;40438;52.992;18.604;2023-10-19T00:21:36;20.20;;;7.88;;
54539;SDS011;40438;52.992;18.604;2023-10-19T00:24:02;19.70;;;8.23;;
54539;SDS011;40438;52.992;18.604;2023-10-19T00:26:29;21.42;;;7.80;;
54539;SDS011;40438;52.992;18.604;2023-10-19T00:28:56;22.77;;;8.52;;
54539;SDS011;40438;52.992;18.604;2023-10-19T00:31:22;22.95;;;9.27;;
54539;SDS011;40438;52.992;18.604;2023-10-19T00:33:49;21.45;;;8.55;;
54539;SDS011;40438;52.992;18.604;2023-10-19T00:36:14;19.40;;;7.72;;
54539;SDS011;40438;52.992;18.604;2023-10-19T00:38:41;19.38;;;9.10;;
54539;SDS011;40438;52.992;18.604;2023-10-19T00:41:08;18.75;;;8.55;;
54539;SDS011;40438;52.992;18.604;2023-10-19T00:43:36;24.95;;;8.48;;
54539;SDS011;40438;52.992;18.604;2023-10-19T00:46:03;25.92;;;10.73;;
54539;SDS011;40438;52.992;18.604;2023-10-19T00:48:29;29.13;;;10.20;;
54539;SDS011;40438;52.992;18.604;2023-10-19T00:50:56;25.70;;;9.77;;
54539;SDS011;40438;52.992;18.604;2023-10-19T00:53:22;26.45;;;10.70;;
54539;SDS011;40438;52.992;18.604;2023-10-19T00:55:47;30.48;;;10.98;;
54539;SDS011;40438;52.992;18.604;2023-10-19T00:58:13;27.73;;;11.48;;
54539;SDS011;40438;52.992;18.604;2023-10-19T01:00:41;27.40;;;11.23;;
54539;SDS011;40438;52.992;18.604;2023-10-19T01:03:07;24.33;;;9.73;;
54539;SDS011;40438;52.992;18.604;2023-10-19T01:05:36;26.00;;;9.82;;
54539;SDS011;40438;52.992;18.604;2023-10-19T01:08:04;28.45;;;9.82;;
54539;SDS011;40438;52.992;18.604;2023-10-19T01:10:30;24.63;;;9.70;;
54539;SDS011;40438;52.992;18.604;2023-10-19T01:12:55;21.77;;;8.85;;
54539;SDS011;40438;52.992;18.604;2023-10-19T01:15:21;23.20;;;9.20;;
54539;SDS011;40438;52.992;18.604;2023-10-19T01:17:49;25.35;;;9.80;;
54539;SDS011;40438;52.992;18.604;2023-10-19T01:20:18;24.30;;;10.27;;
54539;SDS011;40438;52.992;18.604;2023-10-19T01:25:30;25.80;;;8.45;;
54539;SDS011;40438;52.992;18.604;2023-10-19T01:27:56;23.13;;;10.10;;
54539;SDS011;40438;52.992;18.604;2023-10-19T01:30:22;21.85;;;8.80;;
54539;SDS011;40438;52.992;18.604;2023-10-19T01:32:47;24.20;;;9.75;;
54539;SDS011;40438;52.992;18.604;2023-10-19T01:35:13;26.08;;;10.07;;
54539;SDS011;40438;52.992;18.604;2023-10-19T01:37:39;23.50;;;10.52;;
54539;SDS011;40438;52.992;18.604;2023-10-19T01:40:07;28.13;;;11.95;;
54539;SDS011;40438;52.992;18.604;2023-10-19T01:42:33;28.70;;;11.68;;
54539;SDS011;40438;52.992;18.604;2023-10-19T01:44:59;23.38;;;10.55;;
54539;SDS011;40438;52.992;18.604;2023-10-19T01:47:25;28.77;;;10.45;;
54539;SDS011;40438;52.992;18.604;2023-10-19T01:49:50;25.45;;;10.35;;
54539;SDS011;40438;52.992;18.604;2023-10-19T01:52:16;27.00;;;11.48;;
54539;SDS011;40438;52.992;18.604;2023-10-19T01:54:42;34.13;;;11.90;;
54539;SDS011;40438;52.992;18.604;2023-10-19T01:57:09;28.58;;;12.35;;
54539;SDS011;40438;52.992;18.604;2023-10-19T01:59:35;31.10;;;12.90;;
54539;SDS011;40438;52.992;18.604;2023-10-19T02:02:01;32.22;;;13.25;;
54539;SDS011;40438;52.992;18.604;2023-10-19T02:04:26;29.23;;;11.98;;
54539;SDS011;40438;52.992;18.604;2023-10-19T02:06:52;29.48;;;12.27;;
54539;SDS011;40438;52.992;18.604;2023-10-19T02:09:18;30.02;;;13.30;;
54539;SDS011;40438;52.992;18.604;2023-10-19T02:11:44;37.83;;;16.45;;
54539;SDS011;40438;52.992;18.604;2023-10-19T02:14:12;38.38;;;17.17;;
54539;SDS011;40438;52.992;18.604;2023-10-19T02:16:39;39.10;;;14.77;;
54539;SDS011;40438;52.992;18.604;2023-10-19T02:19:05;28.00;;;13.88;;
54539;SDS011;40438;52.992;18.604;2023-10-19T02:21:31;30.25;;;15.00;;
54539;SDS011;40438;52.992;18.604;2023-10-19T02:23:57;43.17;;;15.55;;
54539;SDS011;40438;52.992;18.604;2023-10-19T02:26:23;30.30;;;12.85;;
54539;SDS011;40438;52.992;18.604;2023-10-19T02:28:49;31.88;;;13.55;;
54539;SDS011;40438;52.992;18.604;2023-10-19T02:31:16;36.45;;;13.70;;
54539;SDS011;40438;52.992;18.604;2023-10-19T02:33:42;30.00;;;13.18;;
54539;SDS011;40438;52.992;18.604;2023-10-19T02:36:08;33.67;;;13.27;;
54539;SDS011;40438;52.992;18.604;2023-10-19T02:38:34;37.67;;;12.75;;
54539;SDS011;40438;52.992;18.604;2023-10-19T02:41:00;34.78;;;12.00;;
54539;SDS011;40438;52.992;18.604;2023-10-19T02:43:25;30.73;;;12.02;;
54539;SDS011;40438;52.992;18.604;2023-10-19T02:45:51;32.40;;;12.70;;
54539;SDS011;40438;52.992;18.604;2023-10-19T02:48:18;34.72;;;12.18;;
54539;SDS011;40438;52.992;18.604;2023-10-19T02:50:44;31.98;;;12.35;;
54539;SDS011;40438;52.992;18.604;2023-10-19T02:53:10;33.85;;;12.02;;
54539;SDS011;40438;52.992;18.604;2023-10-19T02:55:36;35.53;;;12.15;;
54539;SDS011;40438;52.992;18.604;2023-10-19T02:58:02;33.60;;;11.38;;
54539;SDS011;40438;52.992;18.604;2023-10-19T03:00:28;31.77;;;11.25;;
54539;SDS011;40438;52.992;18.604;2023-10-19T03:02:54;28.42;;;11.18;;
54539;SDS011;40438;52.992;18.604;2023-10-19T03:05:21;29.80;;;11.38;;
54539;SDS011;40438;52.992;18.604;2023-10-19T03:07:47;28.55;;;12.07;;
54539;SDS011;40438;52.992;18.604;2023-10-19T03:10:13;29.88;;;12.13;;
54539;SDS011;40438;52.992;18.604;2023-10-19T03:12:38;32.70;;;11.73;;
54539;SDS011;40438;52.992;18.604;2023-10-19T03:15:05;29.30;;;12.07;;
54539;SDS011;40438;52.992;18.604;2023-10-19T03:17:31;33.97;;;12.10;;
54539;SDS011;40438;52.992;18.604;2023-10-19T03:19:57;32.15;;;14.80;;
54539;SDS011;40438;52.992;18.604;2023-10-19T03:22:24;31.33;;;12.30;;
54539;SDS011;40438;52.992;18.604;2023-10-19T03:24:50;37.47;;;13.70;;
54539;SDS011;40438;52.992;18.604;2023-10-19T03:27:16;34.38;;;11.63;;
54539;SDS011;40438;52.992;18.604;2023-10-19T03:29:43;42.25;;;13.00;;
54539;SDS011;40438;52.992;18.604;2023-10-19T03:32:09;29.45;;;12.35;;
54539;SDS011;40438;52.992;18.604;2023-10-19T03:34:35;29.58;;;12.43;;
54539;SDS011;40438;52.992;18.604;2023-10-19T03:37:01;25.15;;;11.65;;
54539;SDS011;40438;52.992;18.604;2023-10-19T03:39:28;32.17;;;12.05;;
54539;SDS011;40438;52.992;18.604;2023-10-19T03:41:54;25.77;;;10.65;;
54539;SDS011;40438;52.992;18.604;2023-10-19T03:44:20;28.08;;;10.63;;
54539;SDS011;40438;52.992;18.604;2023-10-19T03:46:46;25.60;;;11.38;;
54539;SDS011;40438;52.992;18.604;2023-10-19T03:49:11;30.70;;;11.27;;
54539;SDS011;40438;52.992;18.604;2023-10-19T03:51:39;24.33;;;11.48;;
54539;SDS011;40438;52.992;18.604;2023-10-19T03:54:04;22.42;;;12.00;;
54539;SDS011;40438;52.992;18.604;2023-10-19T03:56:32;27.27;;;11.68;;
54539;SDS011;40438;52.992;18.604;2023-10-19T03:58:57;29.73;;;12.55;;
54539;SDS011;40438;52.992;18.604;2023-10-19T04:01:23;30.15;;;13.10;;
54539;SDS011;40438;52.992;18.604;2023-10-19T04:03:49;33.88;;;12.90;;
54539;SDS011;40438;52.992;18.604;2023-10-19T04:06:15;29.35;;;13.05;;
54539;SDS011;40438;52.992;18.604;2023-10-19T04:08:41;31.50;;;12.73;;
54539;SDS011;40438;52.992;18.604;2023-10-19T04:11:07;29.75;;;14.43;;
54539;SDS011;40438;52.992;18.604;2023-10-19T04:13:34;37.30;;;13.32;;
54539;SDS011;40438;52.992;18.604;2023-10-19T04:16:00;38.92;;;12.93;;
54539;SDS011;40438;52.992;18.604;2023-10-19T04:18:26;34.72;;;14.70;;
54539;SDS011;40438;52.992;18.604;2023-10-19T04:20:52;32.33;;;12.88;;
54539;SDS011;40438;52.992;18.604;2023-10-19T04:23:17;42.75;;;12.88;;
54539;SDS011;40438;52.992;18.604;2023-10-19T04:25:43;35.30;;;13.15;;
54539;SDS011;40438;52.992;18.604;2023-10-19T04:28:09;30.30;;;13.43;;
54539;SDS011;40438;52.992;18.604;2023-10-19T04:30:36;38.35;;;14.80;;
54539;SDS011;40438;52.992;18.604;2023-10-19T04:33:02;33.13;;;13.15;;
54539;SDS011;40438;52.992;18.604;2023-10-19T04:35:28;34.80;;;13.40;;
54539;SDS011;40438;52.992;18.604;2023-10-19T04:37:54;33.17;;;14.25;;
54539;SDS011;40438;52.992;18.604;2023-10-19T04:40:20;36.72;;;15.35;;
54539;SDS011;40438;52.992;18.604;2023-10-19T04:42:47;40.78;;;15.90;;
54539;SDS011;40438;52.992;18.604;2023-10-19T04:45:13;38.35;;;16.20;;
54539;SDS011;40438;52.992;18.604;2023-10-19T04:47:41;38.75;;;15.52;;
54539;SDS011;40438;52.992;18.604;2023-10-19T04:50:07;41.53;;;16.33;;
54539;SDS011;40438;52.992;18.604;2023-10-19T04:52:33;40.40;;;15.88;;
54539;SDS011;40438;52.992;18.604;2023-10-19T04:54:59;38.63;;;16.98;;
54539;SDS011;40438;52.992;18.604;2023-10-19T04:57:25;39.50;;;16.77;;
54539;SDS011;40438;52.992;18.604;2023-10-19T04:59:51;41.50;;;17.45;;
54539;SDS011;40438;52.992;18.604;2023-10-19T05:02:17;39.17;;;15.25;;
54539;SDS011;40438;52.992;18.604;2023-10-19T05:04:44;37.05;;;15.43;;
54539;SDS011;40438;52.992;18.604;2023-10-19T05:07:10;37.42;;;15.20;;
54539;SDS011;40438;52.992;18.604;2023-10-19T05:09:36;40.42;;;14.25;;
54539;SDS011;40438;52.992;18.604;2023-10-19T05:12:02;36.63;;;13.90;;
54539;SDS011;40438;52.992;18.604;2023-10-19T05:14:28;32.10;;;13.13;;
54539;SDS011;40438;52.992;18.604;2023-10-19T05:16:54;36.60;;;15.00;;
54539;SDS011;40438;52.992;18.604;2023-10-19T05:19:19;36.80;;;13.98;;
54539;SDS011;40438;52.992;18.604;2023-10-19T05:21:46;32.30;;;14.80;;
54539;SDS011;40438;52.992;18.604;2023-10-19T05:24:12;39.60;;;15.80;;
54539;SDS011;40438;52.992;18.604;2023-10-19T05:26:38;42.63;;;16.20;;
54539;SDS011;40438;52.992;18.604;2023-10-19T05:29:04;36.47;;;15.00;;
54539;SDS011;40438;52.992;18.604;2023-10-19T05:31:29;35.67;;;15.18;;
54539;SDS011;40438;52.992;18.604;2023-10-19T05:33:55;31.75;;;13.07;;
54539;SDS011;40438;52.992;18.604;2023-10-19T05:36:21;37.05;;;14.23;;
54539;SDS011;40438;52.992;18.604;2023-10-19T05:38:48;37.05;;;15.27;;
54539;SDS011;40438;52.992;18.604;2023-10-19T05:41:14;44.45;;;15.07;;
54539;SDS011;40438;52.992;18.604;2023-10-19T05:43:40;40.58;;;16.05;;
54539;SDS011;40438;52.992;18.604;2023-10-19T05:46:05;39.08;;;17.35;;
54539;SDS011;40438;52.992;18.604;2023-10-19T05:48:31;37.88;;;17.02;;
54539;SDS011;40438;52.992;18.604;2023-10-19T05:50:57;47.03;;;18.05;;
54539;SDS011;40438;52.992;18.604;2023-10-19T05:53:23;44.80;;;18.13;;
54539;SDS011;40438;52.992;18.604;2023-10-19T05:55:50;44.05;;;17.48;;
54539;SDS011;40438;52.992;18.604;2023-10-19T05:58:16;58.65;;;21.27;;
54539;SDS011;40438;52.992;18.604;2023-10-19T06:00:41;58.67;;;22.05;;
54539;SDS011;40438;52.992;18.604;2023-10-19T06:03:07;57.05;;;20.42;;
54539;SDS011;40438;52.992;18.604;2023-10-19T06:05:33;47.00;;;17.02;;
54539;SDS011;40438;52.992;18.604;2023-10-19T06:07:59;44.15;;;16.65;;
54539;SDS011;40438;52.992;18.604;2023-10-19T06:10:26;39.17;;;17.20;;
54539;SDS011;40438;52.992;18.604;2023-10-19T06:12:55;35.05;;;15.68;;
54539;SDS011;40438;52.992;18.604;2023-10-19T06:15:21;48.70;;;16.48;;
54539;SDS011;40438;52.992;18.604;2023-10-19T06:17:47;45.97;;;16.23;;
54539;SDS011;40438;52.992;18.604;2023-10-19T06:20:13;45.38;;;17.58;;
54539;SDS011;40438;52.992;18.604;2023-10-19T06:22:40;40.63;;;16.80;;
54539;SDS011;40438;52.992;18.604;2023-10-19T06:25:06;34.25;;;14.43;;
54539;SDS011;40438;52.992;18.604;2023-10-19T06:27:32;40.90;;;15.43;;
54539;SDS011;40438;52.992;18.604;2023-10-19T06:29:59;41.17;;;14.38;;
54539;SDS011;40438;52.992;18.604;2023-10-19T06:32:25;40.22;;;15.40;;
54539;SDS011;40438;52.992;18.604;2023-10-19T06:34:51;41.55;;;15.68;;
54539;SDS011;40438;52.992;18.604;2023-10-19T06:37:17;33.55;;;15.80;;
54539;SDS011;40438;52.992;18.604;2023-10-19T06:39:42;40.05;;;15.73;;
54539;SDS011;40438;52.992;18.604;2023-10-19T06:42:08;38.22;;;15.88;;
54539;SDS011;40438;52.992;18.604;2023-10-19T06:44:34;44.22;;;15.98;;
54539;SDS011;40438;52.992;18.604;2023-10-19T06:47:01;37.00;;;16.48;;
54539;SDS011;40438;52.992;18.604;2023-10-19T06:49:29;44.30;;;16.48;;
54539;SDS011;40438;52.992;18.604;2023-10-19T06:51:54;35.75;;;15.82;;
54539;SDS011;40438;52.992;18.604;2023-10-19T06:54:20;42.95;;;16.00;;
54539;SDS011;40438;52.992;18.604;2023-10-19T06:56:46;34.80;;;15.18;;
54539;SDS011;40438;52.992;18.604;2023-10-19T06:59:12;43.65;;;14.45;;
54539;SDS011;40438;52.992;18.604;2023-10-19T07:01:37;33.40;;;13.80;;
54539;SDS011;40438;52.992;18.604;2023-10-19T07:04:05;25.23;;;13.30;;
54539;SDS011;40438;52.992;18.604;2023-10-19T07:06:31;31.48;;;14.23;;
54539;SDS011;40438;52.992;18.604;2023-10-19T07:08:56;32.92;;;14.00;;
54539;SDS011;40438;52.992;18.604;2023-10-19T07:11:22;29.90;;;13.50;;
54539;SDS011;40438;52.992;18.604;2023-10-19T07:13:48;33.75;;;15.77;;
54539;SDS011;40438;52.992;18.604;2023-10-19T07:16:14;37.53;;;15.18;;
54539;SDS011;40438;52.992;18.604;2023-10-19T07:18:39;34.22;;;14.07;;
54539;SDS011;40438;52.992;18.604;2023-10-19T07:21:07;39.55;;;17.17;;
54539;SDS011;40438;52.992;18.604;2023-10-19T07:23:32;42.10;;;19.83;;
54539;SDS011;40438;52.992;18.604;2023-10-19T07:25:58;46.22;;;17.30;;
54539;SDS011;40438;52.992;18.604;2023-10-19T07:28:24;41.22;;;17.52;;
54539;SDS011;40438;52.992;18.604;2023-10-19T07:30:50;35.45;;;16.33;;
54539;SDS011;40438;52.992;18.604;2023-10-19T07:33:16;32.97;;;15.20;;
54539;SDS011;40438;52.992;18.604;2023-10-19T07:35:42;31.00;;;14.90;;
54539;SDS011;40438;52.992;18.604;2023-10-19T07:38:09;33.75;;;15.18;;
54539;SDS011;40438;52.992;18.604;2023-10-19T07:40:35;42.17;;;17.38;;
54539;SDS011;40438;52.992;18.604;2023-10-19T07:43:01;36.80;;;15.93;;
54539;SDS011;40438;52.992;18.604;2023-10-19T07:45:27;35.80;;;15.25;;
54539;SDS011;40438;52.992;18.604;2023-10-19T07:47:53;28.95;;;14.35;;
54539;SDS011;40438;52.992;18.604;2023-10-19T07:50:19;33.15;;;13.80;;
54539;SDS011;40438;52.992;18.604;2023-10-19T07:52:45;32.15;;;14.48;;
54539;SDS011;40438;52.992;18.604;2023-10-19T07:55:13;39.08;;;14.45;;
54539;SDS011;40438;52.992;18.604;2023-10-19T07:57:39;31.05;;;14.40;;
54539;SDS011;40438;52.992;18.604;2023-10-19T08:00:06;35.33;;;14.55;;
54539;SDS011;40438;52.992;18.604;2023-10-19T08:02:32;36.42;;;16.27;;
54539;SDS011;40438;52.992;18.604;2023-10-19T08:04:58;32.15;;;15.00;;
54539;SDS011;40438;52.992;18.604;2023-10-19T08:07:24;33.25;;;14.00;;
54539;SDS011;40438;52.992;18.604;2023-10-19T08:09:50;33.25;;;12.90;;
54539;SDS011;40438;52.992;18.604;2023-10-19T08:12:17;32.13;;;13.48;;
54539;SDS011;40438;52.992;18.604;2023-10-19T08:14:43;28.48;;;13.32;;
54539;SDS011;40438;52.992;18.604;2023-10-19T08:17:08;30.58;;;13.82;;
54539;SDS011;40438;52.992;18.604;2023-10-19T08:19:34;33.38;;;13.30;;
54539;SDS011;40438;52.992;18.604;2023-10-19T08:22:00;33.90;;;14.20;;
54539;SDS011;40438;52.992;18.604;2023-10-19T08:24:26;29.92;;;13.45;;
54539;SDS011;40438;52.992;18.604;2023-10-19T08:26:51;33.60;;;14.07;;
54539;SDS011;40438;52.992;18.604;2023-10-19T08:29:19;30.90;;;13.52;;
54539;SDS011;40438;52.992;18.604;2023-10-19T08:31:44;33.55;;;13.77;;
54539;SDS011;40438;52.992;18.604;2023-10-19T08:34:10;31.42;;;13.50;;
54539;SDS011;40438;52.992;18.604;2023-10-19T08:36:36;30.15;;;14.43;;
54539;SDS011;40438;52.992;18.604;2023-10-19T08:39:03;27.90;;;13.07;;
54539;SDS011;40438;52.992;18.604;2023-10-19T08:41:29;32.60;;;14.38;;
54539;SDS011;40438;52.992;18.604;2023-10-19T08:43:55;31.65;;;13.02;;
54539;SDS011;40438;52.992;18.604;2023-10-19T08:46:23;32.38;;;13.63;;
54539;SDS011;40438;52.992;18.604;2023-10-19T08:48:48;28.38;;;12.18;;
54539;SDS011;40438;52.992;18.604;2023-10-19T08:51:14;31.13;;;11.93;;
54539;SDS011;40438;52.992;18.604;2023-10-19T08:53:41;27.15;;;10.93;;
54539;SDS011;40438;52.992;18.604;2023-10-19T08:56:07;22.17;;;9.80;;
54539;SDS011;40438;52.992;18.604;2023-10-19T08:58:33;24.13;;;10.65;;
54539;SDS011;40438;52.992;18.604;2023-10-19T09:00:59;25.25;;;10.75;;
54539;SDS011;40438;52.992;18.604;2023-10-19T09:03:27;27.88;;;12.32;;
54539;SDS011;40438;52.992;18.604;2023-10-19T09:05:53;21.98;;;11.15;;
54539;SDS011;40438;52.992;18.604;2023-10-19T09:08:19;28.58;;;11.85;;
54539;SDS011;40438;52.992;18.604;2023-10-19T09:10:45;26.38;;;12.57;;
54539;SDS011;40438;52.992;18.604;2023-10-19T09:13:11;27.27;;;11.30;;
54539;SDS011;40438;52.992;18.604;2023-10-19T09:15:37;29.90;;;11.85;;
54539;SDS011;40438;52.992;18.604;2023-10-19T09:18:12;26.33;;;12.30;;
54539;SDS011;40438;52.992;18.604;2023-10-19T09:20:40;27.60;;;13.10;;
54539;SDS011;40438;52.992;18.604;2023-10-19T09:23:07;27.10;;;11.63;;
54539;SDS011;40438;52.992;18.604;2023-10-19T09:25:33;30.10;;;12.05;;
54539;SDS011;40438;52.992;18.604;2023-10-19T09:27:59;25.63;;;12.23;;
54539;SDS011;40438;52.992;18.604;2023-10-19T09:30:24;25.83;;;10.52;;
54539;SDS011;40438;52.992;18.604;2023-10-19T09:32:51;26.30;;;11.25;;
54539;SDS011;40438;52.992;18.604;2023-10-19T09:35:17;25.25;;;10.85;;
54539;SDS011;40438;52.992;18.604;2023-10-19T09:37:46;25.67;;;10.05;;
54539;SDS011;40438;52.992;18.604;2023-10-19T09:40:12;27.17;;;9.82;;
54539;SDS011;40438;52.992;18.604;2023-10-19T09:42:38;29.02;;;12.60;;
54539;SDS011;40438;52.992;18.604;2023-10-19T09:45:06;24.55;;;11.40;;
54539;SDS011;40438;52.992;18.604;2023-10-19T09:47:34;27.38;;;11.43;;
54539;SDS011;40438;52.992;18.604;2023-10-19T09:50:03;23.20;;;11.02;;
54539;SDS011;40438;52.992;18.604;2023-10-19T09:52:30;25.40;;;11.23;;
54539;SDS011;40438;52.992;18.604;2023-10-19T09:54:59;44.00;;;18.15;;
54539;SDS011;40438;52.992;18.604;2023-10-19T09:57:36;34.03;;;14.85;;
54539;SDS011;40438;52.992;18.604;2023-10-19T10:00:07;30.27;;;11.48;;
54539;SDS011;40438;52.992;18.604;2023-10-19T10:02:38;27.08;;;11.65;;
54539;SDS011;40438;52.992;18.604;2023-10-19T10:05:04;41.83;;;16.45;;
54539;SDS011;40438;52.992;18.604;2023-10-19T10:07:30;44.03;;;18.33;;
54539;SDS011;40438;52.992;18.604;2023-10-19T10:09:55;33.97;;;15.10;;
54539;SDS011;40438;52.992;18.604;2023-10-19T10:12:23;34.60;;;16.23;;
54539;SDS011;40438;52.992;18.604;2023-10-19T10:14:58;28.17;;;12.80;;
54539;SDS011;40438;52.992;18.604;2023-10-19T10:17:27;61.28;;;25.38;;
54539;SDS011;40438;52.992;18.604;2023-10-19T10:19:53;39.97;;;17.45;;
54539;SDS011;40438;52.992;18.604;2023-10-19T10:22:21;26.00;;;12.23;;
54539;SDS011;40438;52.992;18.604;2023-10-19T10:24:48;29.10;;;12.02;;
54539;SDS011;40438;52.992;18.604;2023-10-19T10:29:56;25.70;;;11.32;;
54539;SDS011;40438;52.992;18.604;2023-10-19T10:32:42;28.25;;;12.73;;
54539;SDS011;40438;52.992;18.604;2023-10-19T10:38:08;35.67;;;16.65;;
54539;SDS011;40438;52.992;18.604;2023-10-19T10:40:41;34.22;;;14.10;;
54539;SDS011;40438;52.992;18.604;2023-10-19T10:43:10;26.40;;;11.95;;
54539;SDS011;40438;52.992;18.604;2023-10-19T10:45:36;22.50;;;9.98;;
54539;SDS011;40438;52.992;18.604;2023-10-19T10:48:02;25.70;;;11.27;;
54539;SDS011;40438;52.992;18.604;2023-10-19T10:50:28;19.13;;;10.05;;
54539;SDS011;40438;52.992;18.604;2023-10-19T10:52:54;27.17;;;13.63;;
54539;SDS011;40438;52.992;18.604;2023-10-19T10:55:20;27.60;;;13.05;;
54539;SDS011;40438;52.992;18.604;2023-10-19T10:57:46;22.70;;;11.65;;
54539;SDS011;40438;52.992;18.604;2023-10-19T11:00:13;26.35;;;10.10;;
54539;SDS011;40438;52.992;18.604;2023-10-19T11:02:44;26.08;;;9.40;;
54539;SDS011;40438;52.992;18.604;2023-10-19T11:05:11;20.27;;;10.10;;
54539;SDS011;40438;52.992;18.604;2023-10-19T11:07:38;23.20;;;9.55;;
54539;SDS011;40438;52.992;18.604;2023-10-19T11:10:04;21.27;;;10.18;;
54539;SDS011;40438;52.992;18.604;2023-10-19T11:12:30;20.75;;;8.90;;
54539;SDS011;40438;52.992;18.604;2023-10-19T11:14:56;15.73;;;8.50;;
54539;SDS011;40438;52.992;18.604;2023-10-19T11:17:26;25.65;;;9.18;;
54539;SDS011;40438;52.992;18.604;2023-10-19T11:19:54;21.42;;;10.07;;
54539;SDS011;40438;52.992;18.604;2023-10-19T11:22:20;19.85;;;10.80;;
54539;SDS011;40438;52.992;18.604;2023-10-19T11:24:46;25.15;;;10.02;;
54539;SDS011;40438;52.992;18.604;2023-10-19T11:27:12;21.70;;;10.15;;
54539;SDS011;40438;52.992;18.604;2023-10-19T11:29:38;27.25;;;12.15;;
54539;SDS011;40438;52.992;18.604;2023-10-19T11:32:03;23.95;;;10.80;;
54539;SDS011;40438;52.992;18.604;2023-10-19T11:34:31;20.42;;;10.38;;
54539;SDS011;40438;52.992;18.604;2023-10-19T11:36:56;23.05;;;9.98;;
54539;SDS011;40438;52.992;18.604;2023-10-19T11:39:22;18.02;;;9.00;;
54539;SDS011;40438;52.992;18.604;2023-10-19T11:41:48;24.10;;;11.68;;
54539;SDS011;40438;52.992;18.604;2023-10-19T11:44:14;23.17;;;11.25;;
54539;SDS011;40438;52.992;18.604;2023-10-19T11:46:40;21.55;;;10.85;;
54539;SDS011;40438;52.992;18.604;2023-10-19T11:49:05;21.58;;;9.82;;
54539;SDS011;40438;52.992;18.604;2023-10-19T11:51:37;23.83;;;10.27;;
54539;SDS011;40438;52.992;18.604;2023-10-19T11:54:04;22.40;;;10.07;;
54539;SDS011;40438;52.992;18.604;2023-10-19T11:56:30;24.98;;;10.65;;
54539;SDS011;40438;52.992;18.604;2023-10-19T11:58:56;23.77;;;10.20;;
54539;SDS011;40438;52.992;18.604;2023-10-19T12:01:26;24.38;;;10.50;;
54539;SDS011;40438;52.992;18.604;2023-10-19T12:03:52;20.38;;;10.23;;
54539;SDS011;40438;52.992;18.604;2023-10-19T12:06:17;19.83;;;9.68;;
54539;SDS011;40438;52.992;18.604;2023-10-19T12:08:45;21.20;;;10.25;;
54539;SDS011;40438;52.992;18.604;2023-10-19T12:11:11;19.80;;;9.98;;
54539;SDS011;40438;52.992;18.604;2023-10-19T12:13:37;40.20;;;16.67;;
54539;SDS011;40438;52.992;18.604;2023-10-19T12:16:02;34.55;;;15.00;;
54539;SDS011;40438;52.992;18.604;2023-10-19T12:18:28;28.23;;;12.35;;
54539;SDS011;40438;52.992;18.604;2023-10-19T12:20:54;22.30;;;10.77;;
54539;SDS011;40438;52.992;18.604;2023-10-19T12:23:20;26.45;;;11.75;;
54539;SDS011;40438;52.992;18.604;2023-10-19T12:25:47;24.73;;;12.02;;
54539;SDS011;40438;52.992;18.604;2023-10-19T12:28:13;26.08;;;12.20;;
54539;SDS011;40438;52.992;18.604;2023-10-19T12:30:42;20.50;;;11.13;;
54539;SDS011;40438;52.992;18.604;2023-10-19T12:33:08;24.05;;;12.60;;
54539;SDS011;40438;52.992;18.604;2023-10-19T12:35:34;29.98;;;14.27;;
54539;SDS011;40438;52.992;18.604;2023-10-19T12:37:59;20.67;;;11.07;;
54539;SDS011;40438;52.992;18.604;2023-10-19T12:40:25;27.92;;;11.63;;
54539;SDS011;40438;52.992;18.604;2023-10-19T12:42:52;22.83;;;10.90;;
54539;SDS011;40438;52.992;18.604;2023-10-19T12:45:18;21.70;;;11.30;;
54539;SDS011;40438;52.992;18.604;2023-10-19T12:47:44;20.00;;;10.93;;
54539;SDS011;40438;52.992;18.604;2023-10-19T12:50:10;23.40;;;10.20;;
54539;SDS011;40438;52.992;18.604;2023-10-19T12:52:36;19.65;;;9.95;;
54539;SDS011;40438;52.992;18.604;2023-10-19T12:55:01;21.17;;;10.05;;
54539;SDS011;40438;52.992;18.604;2023-10-19T12:57:27;24.27;;;10.55;;
54539;SDS011;40438;52.992;18.604;2023-10-19T12:59:55;23.00;;;10.55;;
54539;SDS011;40438;52.992;18.604;2023-10-19T13:02:20;25.38;;;11.40;;
54539;SDS011;40438;52.992;18.604;2023-10-19T13:04:46;21.83;;;10.45;;
54539;SDS011;40438;52.992;18.604;2023-10-19T13:07:12;19.98;;;9.50;;
54539;SDS011;40438;52.992;18.604;2023-10-19T13:09:37;18.70;;;9.85;;
54539;SDS011;40438;52.992;18.604;2023-10-19T13:12:03;25.35;;;10.90;;
54539;SDS011;40438;52.992;18.604;2023-10-19T13:14:29;20.80;;;10.07;;
54539;SDS011;40438;52.992;18.604;2023-10-19T13:16:57;25.30;;;10.32;;
54539;SDS011;40438;52.992;18.604;2023-10-19T13:19:22;26.40;;;10.00;;
54539;SDS011;40438;52.992;18.604;2023-10-19T13:21:48;27.05;;;10.82;;
54539;SDS011;40438;52.992;18.604;2023-10-19T13:24:14;24.33;;;10.88;;
54539;SDS011;40438;52.992;18.604;2023-10-19T13:26:40;25.60;;;11.30;;
54539;SDS011;40438;52.992;18.604;2023-10-19T13:29:05;24.92;;;10.18;;
54539;SDS011;40438;52.992;18.604;2023-10-19T13:31:31;24.65;;;9.50;;
54539;SDS011;40438;52.992;18.604;2023-10-19T13:33:58;16.92;;;9.20;;
54539;SDS011;40438;52.992;18.604;2023-10-19T13:36:24;16.05;;;8.77;;
54539;SDS011;40438;52.992;18.604;2023-10-19T13:38:50;19.80;;;9.73;;
54539;SDS011;40438;52.992;18.604;2023-10-19T13:41:16;21.10;;;9.52;;
54539;SDS011;40438;52.992;18.604;2023-10-19T13:43:41;21.23;;;10.00;;
54539;SDS011;40438;52.992;18.604;2023-10-19T13:46:07;23.77;;;9.90;;
54539;SDS011;40438;52.992;18.604;2023-10-19T13:48:33;20.10;;;9.40;;
54539;SDS011;40438;52.992;18.604;2023-10-19T13:51:00;20.98;;;9.60;;
54539;SDS011;40438;52.992;18.604;2023-10-19T13:53:26;17.95;;;9.43;;
54539;SDS011;40438;52.992;18.604;2023-10-19T13:55:52;21.92;;;9.23;;
54539;SDS011;40438;52.992;18.604;2023-10-19T13:58:18;20.98;;;10.18;;
54539;SDS011;40438;52.992;18.604;2023-10-19T14:00:44;20.40;;;9.30;;
54539;SDS011;40438;52.992;18.604;2023-10-19T14:03:10;19.90;;;8.88;;
54539;SDS011;40438;52.992;18.604;2023-10-19T14:05:36;18.85;;;9.23;;
54539;SDS011;40438;52.992;18.604;2023-10-19T14:08:04;18.80;;;9.38;;
54539;SDS011;40438;52.992;18.604;2023-10-19T14:10:31;22.88;;;9.63;;
54539;SDS011;40438;52.992;18.604;2023-10-19T14:12:57;19.48;;;9.40;;
54539;SDS011;40438;52.992;18.604;2023-10-19T14:15:22;20.27;;;9.90;;